Huvudsida
METAR-TAF:

METAR-TAF

Flygplatser :

Rom-Urbe flygplats

Rom, Italien

latitud: 41-57N, longitud: 012-30E, höjd: 18 m

Aktuellt väderrapport

Denna rapport gjordes för 10 timmar och 34 minuter sedan, klockan 17:50 UTC
Vind 5 kt från väst/sydväst, varierande mellan syd/sydväst och väst
Temperatur 27°C
Fuktighet 54%
Tryck 1012 hPa
Sikt 10 km eller mer
Inga moln under 1 500 m eller inga cumulonimbus

METAR: LIRU 181750Z 24005KT 200V260 CAVOK 27/17 Q1012

Tid: 06:24 (04:24 UTC)

Väderprognos

Denna rapport gjordes för 14 timmar och 24 minuter sedan, klockan 14:00 UTC
Prognos gäller från 18 kl. 15 UTC till 18 kl. 24 UTC
Vind 8 kt från väst/sydväst
Sikt 10 km eller mer
Inga moln under 1 500 m eller inga cumulonimbus

TAF: LIRU 181400Z 1815/1824 24008KT CAVOK

Aktuella väderrapporter och prognoser från 4000 flygplatser (METAR- och TAF-rapporter).

De tillgängliga stationerna syns som gula och röda prickar på kartan.

För musen över prickarna för att se namnen på stationerna.

Klicka sedan för att få väderrapporter och prognoser.

För att ändra kartan: Klicka på de gröna knapparna med ett svart kors på för att zooma in; den gröna knappen med ett streck på för att zooma ut; eller på de gröna pilarna för angränsande kartor.


METAR-TAF: